Time;durP1;ratioP1;P1;durP2;ratioP2;P2;SDS_P1;SDS_P2;PMS_P1;PMS_P2;Temp;Humidity;BMP_temperature;BMP_pressure;BME280_temperature;BME280_humidity;BME280_pressure;Samples;Min_cycle;Max_cycle;Signal;HPM_P1;HPM_P2
2023/03/03 00:00:16;;;;;;;21.55;15.30;;;4.00;99.90;;;;;;5080250;28;20697;-79
2023/03/03 00:02:43;;;;;;;20.63;15.63;;;4.00;99.90;;;;;;5072355;28;20227;-79
2023/03/03 00:05:14;;;;;;;19.40;14.07;;;4.00;99.90;;;;;;5073941;28;20266;-78
2023/03/03 00:07:44;;;;;;;20.10;13.77;;;3.90;99.90;;;;;;5072745;28;20239;-74
2023/03/03 00:10:13;;;;;;;20.00;14.10;;;3.90;99.90;;;;;;5073063;28;20277;-78
2023/03/03 00:12:47;;;;;;;18.42;14.80;;;3.90;99.90;;;;;;5072964;28;20220;-74
2023/03/03 00:15:16;;;;;;;18.50;12.63;;;3.90;99.90;;;;;;5072407;28;20303;-78
2023/03/03 00:17:43;;;;;;;21.00;14.63;;;4.00;99.90;;;;;;5077614;28;20227;-79
2023/03/03 00:20:34;;;;;;;20.40;14.88;;;4.00;99.90;;;;;;5079748;28;20716;-79
2023/03/03 00:23:14;;;;;;;16.48;13.45;;;4.00;99.90;;;;;;5085378;28;20219;-78
2023/03/03 00:25:44;;;;;;;17.30;13.20;;;4.10;99.90;;;;;;5093599;28;20223;-78
2023/03/03 00:28:29;;;;;;;20.00;14.43;;;4.10;99.90;;;;;;5093080;28;20228;-75
2023/03/03 00:30:58;;;;;;;18.15;12.63;;;4.10;99.90;;;;;;5092654;28;20238;-79
2023/03/03 00:33:31;;;;;;;22.42;14.13;;;4.10;99.90;;;;;;5093501;28;20568;-79
2023/03/03 00:36:10;;;;;;;17.00;12.10;;;4.10;99.90;;;;;;5079376;28;20223;-79
2023/03/03 00:38:37;;;;;;;21.60;14.27;;;4.10;99.90;;;;;;5072304;28;20281;-78
2023/03/03 00:41:16;;;;;;;18.05;14.35;;;4.10;99.90;;;;;;5072730;28;20627;-78
2023/03/03 00:43:43;;;;;;;19.33;13.63;;;4.10;99.90;;;;;;5073277;28;20232;-74
2023/03/03 00:46:10;;;;;;;20.13;12.88;;;4.10;99.90;;;;;;5071791;28;20227;-75
2023/03/03 00:48:43;;;;;;;17.95;14.00;;;4.10;99.90;;;;;;5073119;28;20239;-79
2023/03/03 00:51:26;;;;;;;23.08;14.20;;;4.10;99.90;;;;;;5061386;28;20263;-79
2023/03/03 00:53:53;;;;;;;16.27;11.93;;;4.10;99.90;;;;;;5071966;28;20223;-74
2023/03/03 00:56:22;;;;;;;19.05;13.10;;;4.10;99.90;;;;;;5072936;28;20669;-78
2023/03/03 00:58:49;;;;;;;19.30;13.18;;;4.10;99.90;;;;;;5072710;28;20262;-78
2023/03/03 01:01:18;;;;;;;17.73;13.15;;;4.20;99.90;;;;;;5086102;28;20215;-74
2023/03/03 01:03:46;;;;;;;17.35;13.05;;;4.20;99.90;;;;;;5093194;28;20226;-78
2023/03/03 01:06:14;;;;;;;17.90;12.02;;;4.10;99.90;;;;;;5092224;28;20292;-78
2023/03/03 01:08:41;;;;;;;18.85;13.70;;;4.20;99.90;;;;;;5092773;28;20230;-74
2023/03/03 01:11:12;;;;;;;19.55;14.25;;;4.20;99.90;;;;;;5092209;28;20234;-75
2023/03/03 01:13:46;;;;;;;19.88;14.25;;;4.20;99.90;;;;;;5091704;28;20211;-78
2023/03/03 01:16:13;;;;;;;18.67;13.48;;;4.10;99.90;;;;;;5092039;28;20247;-74
2023/03/03 01:18:40;;;;;;;18.30;13.38;;;4.10;99.90;;;;;;5074868;28;20219;-77
2023/03/03 01:21:07;;;;;;;19.92;13.00;;;4.20;99.90;;;;;;5071814;28;20228;-74
2023/03/03 01:23:35;;;;;;;18.95;13.75;;;4.10;99.90;;;;;;5073527;28;20295;-76
2023/03/03 01:26:02;;;;;;;21.27;14.90;;;4.10;99.90;;;;;;5092177;28;20230;-75
2023/03/03 01:28:29;;;;;;;19.45;13.20;;;4.10;99.90;;;;;;5092206;28;20251;-79
2023/03/03 01:31:02;;;;;;;20.35;13.85;;;4.10;99.90;;;;;;5091916;28;20302;-78
2023/03/03 01:33:30;;;;;;;21.60;15.07;;;4.10;99.90;;;;;;5097535;28;20253;-74
2023/03/03 01:35:57;;;;;;;21.80;14.25;;;4.10;99.90;;;;;;5096786;28;20231;-74
2023/03/03 01:38:24;;;;;;;16.77;13.00;;;4.10;99.90;;;;;;5096851;28;20226;-78
2023/03/03 01:40:56;;;;;;;20.20;13.80;;;4.10;99.90;;;;;;5096255;28;20309;-79
2023/03/03 01:43:26;;;;;;;22.83;15.48;;;4.10;99.90;;;;;;5096800;28;20219;-78
2023/03/03 01:46:30;;;;;;;16.17;12.38;;;4.10;99.90;;;;;;5096214;28;20219;-78
2023/03/03 01:49:02;;;;;;;17.88;13.90;;;4.10;99.90;;;;;;5096046;28;21209;-73
2023/03/03 01:51:31;;;;;;;18.67;14.20;;;4.10;99.90;;;;;;5095978;28;20306;-75
2023/03/03 01:54:01;;;;;;;19.63;14.07;;;4.10;99.90;;;;;;5096165;28;20262;-74
2023/03/03 01:56:29;;;;;;;21.35;16.00;;;4.10;99.90;;;;;;5096378;28;20231;-78
2023/03/03 01:59:01;;;;;;;17.95;14.63;;;4.10;99.90;;;;;;5095086;28;20273;-78
2023/03/03 02:01:29;;;;;;;20.08;14.32;;;4.10;99.90;;;;;;5096282;28;20630;-78
2023/03/03 02:03:58;;;;;;;17.90;14.32;;;4.10;99.90;;;;;;5095594;28;20559;-78
2023/03/03 02:06:28;;;;;;;19.55;14.70;;;4.10;99.90;;;;;;5095827;28;20225;-78
2023/03/03 02:09:02;;;;;;;19.85;14.95;;;4.20;99.90;;;;;;5095675;28;20254;-79
2023/03/03 02:11:32;;;;;;;17.23;13.65;;;4.20;99.90;;;;;;5095907;28;20242;-74
2023/03/03 02:14:02;;;;;;;18.75;14.20;;;4.20;99.90;;;;;;5094733;28;20219;-74
2023/03/03 02:16:29;;;;;;;19.75;15.40;;;4.10;99.90;;;;;;5096345;28;20226;-78
2023/03/03 02:18:58;;;;;;;22.00;13.82;;;4.20;99.90;;;;;;5095021;28;20219;-79
2023/03/03 02:21:27;;;;;;;20.08;13.55;;;4.20;99.90;;;;;;5095616;28;20610;-79
2023/03/03 02:24:00;;;;;;;22.80;16.00;;;4.20;99.90;;;;;;5095192;28;20215;-74
2023/03/03 02:26:30;;;;;;;20.83;15.15;;;4.20;99.90;;;;;;5095834;28;20308;-74
2023/03/03 02:28:57;;;;;;;18.95;13.70;;;4.20;99.90;;;;;;5094282;28;20242;-74
2023/03/03 02:31:26;;;;;;;20.00;13.27;;;4.10;99.90;;;;;;5095623;28;20300;-74
2023/03/03 02:33:54;;;;;;;18.95;14.30;;;4.10;99.90;;;;;;5094742;28;20250;-74
2023/03/03 02:36:24;;;;;;;20.00;14.23;;;4.10;99.90;;;;;;5094455;28;20680;-74
2023/03/03 02:38:59;;;;;;;17.00;13.40;;;4.10;99.90;;;;;;5094756;28;20235;-74
2023/03/03 02:41:33;;;;;;;18.08;12.98;;;4.10;99.90;;;;;;5095859;28;20242;-78
2023/03/03 02:44:02;;;;;;;20.55;15.55;;;4.10;99.90;;;;;;5094377;28;20254;-74
2023/03/03 02:46:33;;;;;;;19.35;15.00;;;4.10;99.90;;;;;;5095435;28;20223;-79
2023/03/03 02:49:00;;;;;;;20.45;15.02;;;4.00;99.90;;;;;;5094929;28;20525;-79
2023/03/03 02:51:27;;;;;;;20.08;14.40;;;4.00;99.90;;;;;;5094965;28;20242;-79
2023/03/03 02:53:54;;;;;;;14.65;12.75;;;4.00;99.90;;;;;;5094312;28;20677;-79
2023/03/03 02:56:21;;;;;;;20.92;14.65;;;4.00;99.90;;;;;;5094887;28;20292;-79
2023/03/03 02:58:49;;;;;;;21.42;15.25;;;3.90;99.90;;;;;;5094171;28;20289;-75
2023/03/03 03:01:16;;;;;;;20.48;15.25;;;3.90;99.90;;;;;;5094821;28;20223;-74
2023/03/03 03:03:45;;;;;;;18.35;14.82;;;3.90;99.90;;;;;;5087784;28;20239;-78
2023/03/03 03:06:12;;;;;;;19.58;14.40;;;3.90;99.90;;;;;;5074630;28;20353;-79
2023/03/03 03:08:40;;;;;;;17.95;13.73;;;3.90;99.90;;;;;;5074328;28;20282;-78
2023/03/03 03:11:07;;;;;;;23.35;13.82;;;3.90;99.90;;;;;;5074614;28;20247;-79
2023/03/03 03:13:34;;;;;;;22.92;15.07;;;3.80;99.90;;;;;;5074108;28;20316;-79
2023/03/03 03:16:03;;;;;;;22.85;14.75;;;3.80;99.90;;;;;;5072896;28;20234;-79
2023/03/03 03:18:30;;;;;;;17.90;14.00;;;3.80;99.90;;;;;;5074513;28;20442;-78
2023/03/03 03:20:57;;;;;;;20.00;13.95;;;3.80;99.90;;;;;;5085782;28;20219;-74
2023/03/03 03:23:24;;;;;;;19.95;14.38;;;3.80;99.90;;;;;;5094855;28;20227;-75
2023/03/03 03:25:51;;;;;;;19.92;13.98;;;3.80;99.90;;;;;;5079776;28;20298;-78
2023/03/03 03:28:18;;;;;;;21.20;16.42;;;3.80;99.90;;;;;;5092246;28;20231;-78
2023/03/03 03:30:45;;;;;;;21.23;14.27;;;3.80;99.90;;;;;;5093098;28;20624;-78
2023/03/03 03:33:14;;;;;;;23.00;15.60;;;3.80;99.90;;;;;;5094446;28;20264;-74
2023/03/03 03:35:44;;;;;;;18.25;15.02;;;3.80;99.90;;;;;;5094012;28;20235;-77
2023/03/03 03:38:12;;;;;;;18.40;13.70;;;3.80;99.90;;;;;;5093819;28;20251;-74
2023/03/03 03:40:39;;;;;;;17.67;13.07;;;3.80;99.90;;;;;;5083153;28;20215;-77
2023/03/03 03:43:10;;;;;;;19.75;13.02;;;3.80;99.90;;;;;;5092971;28;20227;-74
2023/03/03 03:45:37;;;;;;;21.60;14.68;;;3.80;99.90;;;;;;5093344;28;20637;-73
2023/03/03 03:48:04;;;;;;;22.17;15.73;;;3.70;99.90;;;;;;5093950;28;20285;-76
2023/03/03 03:50:32;;;;;;;21.55;14.30;;;3.70;99.90;;;;;;5093079;28;20261;-75
2023/03/03 03:53:00;;;;;;;19.63;14.00;;;3.70;99.90;;;;;;5093438;28;20563;-76
2023/03/03 03:55:26;;;;;;;22.65;13.95;;;3.70;99.90;;;;;;5093358;28;20269;-75
2023/03/03 03:57:53;;;;;;;15.90;12.45;;;3.70;99.90;;;;;;5093108;28;20246;-75
2023/03/03 04:00:21;;;;;;;18.35;13.02;;;3.70;99.90;;;;;;5090885;28;20610;-75
2023/03/03 04:02:48;;;;;;;23.25;14.40;;;3.70;99.90;;;;;;5093532;28;20657;-75
2023/03/03 04:05:15;;;;;;;20.00;14.77;;;3.70;99.90;;;;;;5090619;28;20709;-77
2023/03/03 04:07:44;;;;;;;20.13;14.90;;;3.70;99.90;;;;;;5092104;28;20680;-77
2023/03/03 04:10:11;;;;;;;20.55;13.57;;;3.70;99.90;;;;;;5082531;28;20656;-74
2023/03/03 04:12:38;;;;;;;22.33;15.00;;;3.70;99.90;;;;;;5098019;28;20231;-74
2023/03/03 04:15:08;;;;;;;18.17;14.80;;;3.60;99.90;;;;;;5101673;28;20245;-74
2023/03/03 04:17:36;;;;;;;23.50;16.17;;;3.60;99.90;;;;;;5096698;28;20668;-75
2023/03/03 04:20:04;;;;;;;17.45;12.90;;;3.60;99.90;;;;;;5105086;28;20566;-77
2023/03/03 04:22:32;;;;;;;18.15;12.40;;;3.60;99.90;;;;;;5097139;28;20219;-73
2023/03/03 04:25:04;;;;;;;20.13;15.32;;;3.60;99.90;;;;;;5093837;28;20564;-77
2023/03/03 04:27:31;;;;;;;18.52;12.55;;;3.60;99.90;;;;;;5092745;28;20224;-77
2023/03/03 04:29:58;;;;;;;17.05;12.93;;;3.60;99.90;;;;;;5092965;28;20241;-77
2023/03/03 04:32:25;;;;;;;18.60;13.98;;;3.60;99.90;;;;;;5092892;28;20255;-77
2023/03/03 04:34:52;;;;;;;16.15;12.02;;;3.50;99.90;;;;;;5092460;28;20269;-77
2023/03/03 04:37:19;;;;;;;20.42;12.93;;;3.50;99.90;;;;;;5092934;28;20227;-78
2023/03/03 04:39:46;;;;;;;17.77;11.80;;;3.50;99.90;;;;;;5092698;28;20242;-77
2023/03/03 04:42:15;;;;;;;19.77;13.18;;;3.50;99.90;;;;;;5091744;28;20227;-77
2023/03/03 04:44:42;;;;;;;17.98;13.38;;;3.40;99.90;;;;;;5092856;28;20570;-78
2023/03/03 04:47:09;;;;;;;17.58;12.32;;;3.40;99.90;;;;;;5092779;28;20251;-74
2023/03/03 04:49:36;;;;;;;16.67;12.35;;;3.40;99.90;;;;;;5092735;28;20270;-77
2023/03/03 04:52:03;;;;;;;19.95;12.65;;;3.40;99.90;;;;;;5092351;28;20223;-74
2023/03/03 04:54:30;;;;;;;15.10;11.70;;;3.40;99.90;;;;;;5092611;28;20227;-77
2023/03/03 04:56:58;;;;;;;15.88;11.57;;;3.30;99.90;;;;;;5092707;28;20247;-74
2023/03/03 04:59:26;;;;;;;17.80;13.07;;;3.30;99.90;;;;;;5092477;28;20234;-74
2023/03/03 05:01:53;;;;;;;17.95;13.32;;;3.30;99.90;;;;;;5092935;28;20246;-78
2023/03/03 05:04:27;;;;;;;18.50;13.68;;;3.30;99.90;;;;;;5091840;28;20258;-74
2023/03/03 05:06:56;;;;;;;16.88;12.57;;;3.30;99.90;;;;;;5092991;28;20222;-74
2023/03/03 05:09:23;;;;;;;16.42;12.30;;;3.30;99.90;;;;;;5092599;28;20227;-74
2023/03/03 05:11:50;;;;;;;18.52;13.35;;;3.30;99.90;;;;;;5082421;28;20309;-74
2023/03/03 05:14:17;;;;;;;17.45;12.82;;;3.30;99.90;;;;;;5091884;28;20243;-74
2023/03/03 05:16:45;;;;;;;21.85;13.75;;;3.30;99.90;;;;;;5081420;28;20352;-77
2023/03/03 05:19:12;;;;;;;16.13;12.75;;;3.30;99.90;;;;;;5092143;28;20266;-77
2023/03/03 05:21:41;;;;;;;19.73;15.50;;;3.30;99.90;;;;;;5091856;28;20254;-77
2023/03/03 05:24:08;;;;;;;18.65;13.88;;;3.30;99.90;;;;;;5092706;28;20746;-74
2023/03/03 05:26:35;;;;;;;21.15;13.90;;;3.30;99.90;;;;;;5091274;28;20730;-74
2023/03/03 05:29:02;;;;;;;22.63;15.95;;;3.30;99.90;;;;;;5092366;28;20247;-77
2023/03/03 05:31:29;;;;;;;17.02;11.68;;;3.30;99.90;;;;;;5092002;28;20257;-74
2023/03/03 05:33:57;;;;;;;17.55;12.32;;;3.30;99.90;;;;;;5092071;28;20227;-77
2023/03/03 05:36:24;;;;;;;19.40;13.20;;;3.30;99.90;;;;;;5092276;28;20223;-77
2023/03/03 05:38:52;;;;;;;18.65;12.85;;;3.30;99.90;;;;;;5092522;28;20539;-74
2023/03/03 05:41:19;;;;;;;16.05;13.05;;;3.30;99.90;;;;;;5091439;28;20538;-73
2023/03/03 05:43:46;;;;;;;19.75;14.43;;;3.30;99.90;;;;;;5092572;28;20554;-77
2023/03/03 05:46:13;;;;;;;20.52;15.65;;;3.30;99.90;;;;;;5092353;28;20752;-77
2023/03/03 05:48:42;;;;;;;21.23;14.02;;;3.30;99.90;;;;;;5092019;28;20719;-73
2023/03/03 05:51:10;;;;;;;19.77;13.32;;;3.30;99.90;;;;;;5092111;28;20227;-75
2023/03/03 05:53:37;;;;;;;21.95;13.80;;;3.30;99.90;;;;;;5092054;28;20243;-77
2023/03/03 05:56:06;;;;;;;15.43;12.15;;;3.30;99.90;;;;;;5091511;28;20741;-74
2023/03/03 05:58:33;;;;;;;16.45;12.00;;;3.30;99.90;;;;;;5091761;28;20572;-74
2023/03/03 06:01:00;;;;;;;32.97;20.77;;;3.30;99.90;;;;;;5091281;28;20230;-74
2023/03/03 06:03:27;;;;;;;23.77;14.02;;;3.20;99.90;;;;;;5091065;28;20227;-77
2023/03/03 06:05:54;;;;;;;21.63;15.02;;;3.20;99.90;;;;;;5092251;28;20318;-77
2023/03/03 06:08:22;;;;;;;18.33;12.57;;;3.30;99.90;;;;;;5091241;28;20249;-77
2023/03/03 06:10:49;;;;;;;19.63;13.10;;;3.30;99.90;;;;;;5091501;28;20219;-77
2023/03/03 06:13:16;;;;;;;15.65;11.43;;;3.30;99.90;;;;;;5092073;28;20239;-77
2023/03/03 06:15:43;;;;;;;18.00;12.02;;;3.30;99.90;;;;;;5091740;28;20220;-77
2023/03/03 06:18:11;;;;;;;17.77;11.95;;;3.30;99.90;;;;;;5093753;28;20384;-74
2023/03/03 06:20:38;;;;;;;16.33;11.38;;;3.30;99.90;;;;;;5095254;28;20615;-74
2023/03/03 06:23:06;;;;;;;19.58;12.25;;;3.30;99.90;;;;;;5095811;28;20226;-74
2023/03/03 06:25:34;;;;;;;17.20;11.93;;;3.30;99.90;;;;;;5094945;28;20288;-74
2023/03/03 06:28:01;;;;;;;17.77;12.90;;;3.30;99.90;;;;;;5095633;28;20235;-74
2023/03/03 06:30:29;;;;;;;18.10;12.10;;;3.30;99.90;;;;;;5095523;28;20310;-74
2023/03/03 06:32:56;;;;;;;14.95;11.63;;;3.30;99.90;;;;;;5095143;28;20576;-74
2023/03/03 06:35:23;;;;;;;12.73;9.73;;;3.30;99.90;;;;;;5095098;28;20227;-74
2023/03/03 06:37:50;;;;;;;15.77;10.65;;;3.30;99.90;;;;;;5095175;28;20219;-77
2023/03/03 06:40:17;;;;;;;10.15;8.60;;;3.30;99.90;;;;;;5094235;28;20285;-77
2023/03/03 06:42:46;;;;;;;10.70;7.82;;;3.30;99.90;;;;;;5095325;28;20223;-77
2023/03/03 06:45:15;;;;;;;11.10;9.02;;;3.30;99.90;;;;;;5095544;28;20743;-77
2023/03/03 06:47:42;;;;;;;14.70;10.75;;;3.30;99.90;;;;;;5094396;28;20232;-77
2023/03/03 06:50:11;;;;;;;13.18;10.05;;;3.30;99.90;;;;;;5095706;28;20241;-74
2023/03/03 06:52:38;;;;;;;13.50;10.73;;;3.30;99.90;;;;;;5094889;28;20283;-74
2023/03/03 06:55:12;;;;;;;14.68;11.70;;;3.20;99.90;;;;;;5094693;28;20256;-74
2023/03/03 06:57:40;;;;;;;16.25;11.75;;;3.30;99.90;;;;;;5094603;28;20235;-74
2023/03/03 07:00:16;;;;;;;20.75;13.48;;;3.30;99.90;;;;;;5095161;28;20605;-74
2023/03/03 07:02:44;;;;;;;23.15;16.00;;;3.30;99.90;;;;;;5094106;28;20226;-78
2023/03/03 07:05:16;;;;;;;17.63;12.35;;;3.30;99.90;;;;;;5095092;28;20284;-78
2023/03/03 07:07:43;;;;;;;18.33;13.88;;;3.30;99.90;;;;;;5094527;28;20255;-78
2023/03/03 07:10:22;;;;;;;18.42;12.43;;;3.30;99.90;;;;;;5094508;28;20219;-77
2023/03/03 07:12:49;;;;;;;18.88;13.95;;;3.30;99.90;;;;;;5094219;28;20234;-73
2023/03/03 07:15:21;;;;;;;19.58;13.32;;;3.40;99.90;;;;;;5095082;28;20232;-77
2023/03/03 07:17:50;;;;;;;17.80;12.38;;;3.40;99.90;;;;;;5093952;28;20268;-77
2023/03/03 07:20:21;;;;;;;20.58;12.98;;;3.40;99.90;;;;;;5094872;28;20247;-77
2023/03/03 07:22:48;;;;;;;24.95;14.90;;;3.40;99.90;;;;;;5094602;28;20215;-77
2023/03/03 07:25:23;;;;;;;27.98;16.02;;;3.40;99.90;;;;;;5094509;28;20219;-78
2023/03/03 07:27:51;;;;;;;19.70;12.50;;;3.40;99.90;;;;;;5093877;28;20227;-78
2023/03/03 07:30:27;;;;;;;16.00;11.77;;;3.40;99.90;;;;;;5094543;28;20684;-74
2023/03/03 07:32:56;;;;;;;23.30;11.60;;;3.40;99.90;;;;;;5093713;28;20357;-74
2023/03/03 07:35:36;;;;;;;17.15;12.90;;;3.40;99.90;;;;;;5094571;28;20332;-77
2023/03/03 07:38:03;;;;;;;17.15;9.90;;;3.40;99.90;;;;;;5094417;28;20323;-74
2023/03/03 07:40:36;;;;;;;16.40;11.55;;;3.30;99.90;;;;;;5093732;28;20220;-74
2023/03/03 07:43:29;;;;;;;15.43;10.13;;;3.30;99.90;;;;;;5093188;28;20269;-74
2023/03/03 07:46:17;;;;;;;12.00;9.85;;;3.30;99.90;;;;;;5093797;28;20223;-77
2023/03/03 07:48:44;;;;;;;15.38;9.95;;;3.30;99.90;;;;;;5093563;28;20224;-77
2023/03/03 07:51:21;;;;;;;14.95;9.43;;;3.30;99.90;;;;;;5094375;28;20227;-77
2023/03/03 07:53:48;;;;;;;20.73;12.23;;;3.40;99.90;;;;;;5094142;28;20215;-74
2023/03/03 07:56:35;;;;;;;17.70;11.02;;;3.40;99.90;;;;;;5094176;28;20254;-77
2023/03/03 07:59:07;;;;;;;15.35;10.90;;;3.40;99.90;;;;;;5093211;28;20223;-77
2023/03/03 08:01:43;;;;;;;15.18;10.07;;;3.40;99.90;;;;;;5093274;28;20230;-77
2023/03/03 08:04:19;;;;;;;19.33;12.07;;;3.40;99.90;;;;;;5094065;28;20219;-74
2023/03/03 08:06:53;;;;;;;15.60;10.02;;;3.40;99.90;;;;;;5093406;28;20219;-74
2023/03/03 08:09:35;;;;;;;15.77;11.70;;;3.50;99.90;;;;;;5093408;28;20229;-77
2023/03/03 08:12:24;;;;;;;16.33;10.80;;;3.50;99.90;;;;;;5093355;28;20604;-77
2023/03/03 08:14:53;;;;;;;14.63;9.70;;;3.50;99.90;;;;;;5093315;28;20318;-74
2023/03/03 08:17:25;;;;;;;15.63;9.80;;;3.50;99.90;;;;;;5093199;28;20223;-74
2023/03/03 08:19:54;;;;;;;18.42;11.48;;;3.50;99.90;;;;;;5092864;28;20374;-74
2023/03/03 08:22:30;;;;;;;14.32;9.60;;;3.50;99.90;;;;;;5093981;28;20603;-74
2023/03/03 08:24:59;;;;;;;14.15;9.75;;;3.60;99.90;;;;;;5092584;28;20223;-77
2023/03/03 08:27:26;;;;;;;16.38;13.52;;;3.60;99.90;;;;;;5093279;28;20280;-77
2023/03/03 08:29:53;;;;;;;17.13;12.23;;;3.60;99.90;;;;;;5092578;28;20253;-77
2023/03/03 08:32:20;;;;;;;17.02;10.80;;;3.70;99.90;;;;;;5092957;28;20223;-74
2023/03/03 08:34:48;;;;;;;15.27;9.57;;;3.70;99.90;;;;;;5093445;28;20247;-77
2023/03/03 08:37:15;;;;;;;12.05;8.05;;;3.70;99.90;;;;;;5092557;28;20314;-74
2023/03/03 08:39:43;;;;;;;14.68;10.23;;;3.70;99.90;;;;;;5092556;28;20247;-77
2023/03/03 08:42:10;;;;;;;12.20;8.70;;;3.80;99.90;;;;;;5092534;28;20226;-75
2023/03/03 08:44:37;;;;;;;13.95;8.80;;;3.70;99.90;;;;;;5093527;28;20230;-74
2023/03/03 08:47:04;;;;;;;11.15;8.15;;;3.80;99.90;;;;;;5091467;28;20230;-74
2023/03/03 08:49:31;;;;;;;12.25;9.23;;;3.80;99.90;;;;;;5093385;28;20223;-74
2023/03/03 08:51:59;;;;;;;12.25;8.88;;;3.90;99.90;;;;;;5092393;28;20216;-77
2023/03/03 08:54:27;;;;;;;13.38;8.75;;;3.90;99.90;;;;;;5092195;28;20609;-74
2023/03/03 08:56:54;;;;;;;12.63;7.65;;;3.90;99.90;;;;;;5091743;28;20241;-74
2023/03/03 08:59:21;;;;;;;10.75;7.45;;;3.90;99.90;;;;;;5092366;28;20320;-74
2023/03/03 09:01:48;;;;;;;12.55;8.02;;;4.00;99.90;;;;;;5092816;28;20215;-74
2023/03/03 09:04:15;;;;;;;11.05;7.10;;;4.00;99.90;;;;;;5092900;28;20224;-77
2023/03/03 09:06:43;;;;;;;11.50;8.10;;;4.10;99.90;;;;;;5092991;28;21035;-74
2023/03/03 09:09:11;;;;;;;12.35;9.15;;;4.10;99.90;;;;;;5091563;28;20306;-75
2023/03/03 09:11:38;;;;;;;11.30;7.97;;;4.10;99.90;;;;;;5093201;28;20219;-74
2023/03/03 09:14:11;;;;;;;14.82;9.10;;;4.10;99.90;;;;;;5093964;28;20668;-74
2023/03/03 09:16:40;;;;;;;13.73;8.45;;;4.20;99.90;;;;;;5092221;28;20254;-77
2023/03/03 09:19:25;;;;;;;13.13;7.70;;;4.20;99.90;;;;;;5092847;28;20609;-77
2023/03/03 09:21:54;;;;;;;11.63;7.68;;;4.30;99.90;;;;;;5081982;28;20322;-74
2023/03/03 09:24:26;;;;;;;10.65;7.63;;;4.30;99.90;;;;;;5092085;28;20298;-77
2023/03/03 09:26:54;;;;;;;13.55;11.10;;;4.30;99.90;;;;;;5092556;28;20283;-76
2023/03/03 09:29:26;;;;;;;11.30;9.07;;;4.40;99.90;;;;;;5091974;28;20676;-77
2023/03/03 09:31:55;;;;;;;11.68;8.52;;;4.40;99.90;;;;;;5092444;28;20227;-77
2023/03/03 09:34:26;;;;;;;10.85;8.65;;;4.40;99.90;;;;;;5092076;28;20231;-74
2023/03/03 09:36:55;;;;;;;12.13;8.75;;;4.40;99.90;;;;;;5093177;28;20247;-74
2023/03/03 09:39:24;;;;;;;13.00;8.88;;;4.50;99.90;;;;;;5091512;28;20591;-77
2023/03/03 09:42:20;;;;;;;11.70;8.38;;;4.50;99.90;;;;;;5092668;28;20233;-77
2023/03/03 09:45:03;;;;;;;11.35;7.88;;;4.60;99.90;;;;;;5092560;28;20299;-75
2023/03/03 09:47:44;;;;;;;10.48;7.68;;;4.60;99.90;;;;;;5092421;28;20302;-74
2023/03/03 09:50:26;;;;;;;11.30;8.00;;;4.60;99.90;;;;;;5091684;28;20241;-74
2023/03/03 09:53:03;;;;;;;10.50;7.55;;;4.60;99.90;;;;;;5093166;28;20292;-74
2023/03/03 09:55:48;;;;;;;11.77;8.23;;;4.70;99.90;;;;;;5096204;28;20250;-74
2023/03/03 09:58:36;;;;;;;11.35;8.70;;;4.70;99.90;;;;;;5095947;28;20218;-74
2023/03/03 10:01:19;;;;;;;14.52;10.98;;;4.70;99.90;;;;;;5095196;28;20231;-74
2023/03/03 10:04:07;;;;;;;26.20;15.82;;;4.80;99.90;;;;;;5095623;28;20284;-77
2023/03/03 10:06:39;;;;;;;17.30;12.80;;;4.80;99.90;;;;;;5093315;28;20296;-74
2023/03/03 10:09:44;;;;;;;16.00;10.05;;;4.80;99.90;;;;;;5095734;28;20296;-77
2023/03/03 10:12:17;;;;;;;12.05;9.73;;;4.90;99.90;;;;;;5096905;28;20289;-74
2023/03/03 10:15:03;;;;;;;17.95;9.60;;;4.90;99.90;;;;;;5095471;28;20218;-75
2023/03/03 10:17:45;;;;;;;12.65;9.75;;;4.90;99.90;;;;;;5095945;28;20219;-78
2023/03/03 10:20:29;;;;;;;12.43;10.57;;;4.90;99.90;;;;;;5096019;28;20231;-77
2023/03/03 10:23:01;;;;;;;17.15;10.70;;;4.90;99.90;;;;;;5094760;28;20265;-77
2023/03/03 10:25:41;;;;;;;15.13;9.63;;;5.00;99.90;;;;;;5095843;28;20219;-77
2023/03/03 10:28:48;;;;;;;14.00;11.05;;;5.00;99.90;;;;;;5094666;28;20242;-77
2023/03/03 10:31:29;;;;;;;28.90;18.92;;;5.00;99.90;;;;;;5085860;28;20690;-77
2023/03/03 10:34:06;;;;;;;23.67;16.95;;;5.00;99.90;;;;;;5095501;28;20250;-77
2023/03/03 10:36:46;;;;;;;22.10;17.20;;;5.00;99.90;;;;;;5095143;28;20227;-74
2023/03/03 10:39:29;;;;;;;20.13;13.77;;;5.10;99.90;;;;;;5094496;28;20254;-74
2023/03/03 10:42:11;;;;;;;19.80;13.02;;;5.10;99.90;;;;;;5095698;28;20244;-74
2023/03/03 10:44:58;;;;;;;20.67;14.40;;;5.20;99.90;;;;;;5094883;28;20215;-75
2023/03/03 10:47:43;;;;;;;18.27;11.13;;;5.30;99.90;;;;;;5094617;28;20281;-75
2023/03/03 10:50:19;;;;;;;16.35;11.13;;;5.30;99.90;;;;;;5094908;28;20229;-74
2023/03/03 10:52:51;;;;;;;18.20;14.32;;;5.30;99.90;;;;;;5094658;28;20257;-77
2023/03/03 10:55:37;;;;;;;18.45;12.65;;;5.40;99.90;;;;;;5084083;28;20292;-74
2023/03/03 10:58:33;;;;;;;16.85;12.15;;;5.40;99.90;;;;;;5095315;28;20223;-74
2023/03/03 11:01:08;;;;;;;18.45;12.13;;;5.40;99.90;;;;;;5086754;28;20246;-74
2023/03/03 11:03:58;;;;;;;15.65;11.48;;;5.50;99.90;;;;;;5094419;28;20219;-77
2023/03/03 11:06:29;;;;;;;17.83;12.07;;;5.50;99.90;;;;;;5092736;28;20216;-76
2023/03/03 11:09:03;;;;;;;13.68;11.10;;;5.50;99.90;;;;;;5094307;28;20227;-76
2023/03/03 11:11:39;;;;;;;21.20;11.73;;;5.60;99.90;;;;;;5094686;28;20227;-77
2023/03/03 11:14:13;;;;;;;16.63;11.35;;;5.60;99.90;;;;;;5094178;28;20304;-78
2023/03/03 11:16:51;;;;;;;17.30;11.30;;;5.60;99.90;;;;;;5094912;28;20231;-78
2023/03/03 11:19:44;;;;;;;17.73;11.50;;;5.70;99.90;;;;;;5094704;28;20224;-77
2023/03/03 11:22:22;;;;;;;18.23;12.77;;;5.70;99.90;;;;;;5094471;28;20227;-77
2023/03/03 11:25:02;;;;;;;22.25;14.77;;;5.70;99.90;;;;;;5094749;28;20222;-77
2023/03/03 11:27:41;;;;;;;18.58;11.95;;;5.80;99.90;;;;;;5094548;28;20627;-77
2023/03/03 11:30:34;;;;;;;18.67;11.82;;;5.80;99.90;;;;;;5093286;28;20402;-77
2023/03/03 11:33:06;;;;;;;20.80;13.02;;;5.80;99.90;;;;;;5094295;28;20657;-74
2023/03/03 11:35:44;;;;;;;19.17;11.80;;;5.80;99.90;;;;;;5094178;28;20228;-73
2023/03/03 11:38:35;;;;;;;21.42;14.18;;;5.80;99.90;;;;;;5093553;28;20263;-75
2023/03/03 11:41:07;;;;;;;17.67;13.10;;;5.80;99.90;;;;;;5084888;28;20725;-75
2023/03/03 11:43:40;;;;;;;22.50;14.80;;;5.90;99.90;;;;;;5093768;28;20268;-74
2023/03/03 11:46:11;;;;;;;21.10;12.95;;;5.90;99.90;;;;;;5094542;28;20312;-73
2023/03/03 11:48:47;;;;;;;22.70;12.88;;;5.90;99.90;;;;;;5094089;28;20223;-73
2023/03/03 11:51:23;;;;;;;21.33;15.02;;;6.00;99.90;;;;;;5093540;28;20231;-76
2023/03/03 11:53:59;;;;;;;18.40;11.98;;;6.00;99.90;;;;;;5094681;28;20296;-73
2023/03/03 11:56:34;;;;;;;17.15;11.07;;;6.00;99.90;;;;;;5083639;28;20246;-74
2023/03/03 11:59:29;;;;;;;16.60;11.80;;;6.00;99.90;;;;;;5093499;28;20223;-74
2023/03/03 12:02:11;;;;;;;20.67;13.10;;;6.00;99.90;;;;;;5081957;28;20265;-75
2023/03/03 12:04:47;;;;;;;13.55;11.32;;;6.00;99.90;;;;;;5094065;28;20291;-74
2023/03/03 12:07:28;;;;;;;23.38;13.75;;;6.00;99.90;;;;;;5093112;28;20241;-77
2023/03/03 12:10:08;;;;;;;21.67;12.63;;;6.00;99.90;;;;;;5093096;28;20672;-74
2023/03/03 12:12:40;;;;;;;16.40;11.93;;;6.00;99.90;;;;;;5082914;28;20261;-74
2023/03/03 12:15:19;;;;;;;20.80;13.05;;;6.10;99.90;;;;;;5092250;28;20873;-74
2023/03/03 12:17:59;;;;;;;22.33;14.57;;;6.10;99.90;;;;;;5093633;28;20227;-74
2023/03/03 12:20:34;;;;;;;25.02;14.05;;;6.10;99.90;;;;;;5073493;28;20281;-74
2023/03/03 12:23:16;;;;;;;22.50;14.38;;;6.10;99.90;;;;;;5073196;28;20230;-77
2023/03/03 12:25:46;;;;;;;22.73;14.75;;;6.20;99.90;;;;;;5072918;28;20223;-74
2023/03/03 12:28:19;;;;;;;24.35;15.95;;;6.20;99.90;;;;;;5071846;28;20586;-77
2023/03/03 12:31:10;;;;;;;21.60;13.77;;;6.20;99.90;;;;;;5073496;28;20227;-78
2023/03/03 12:33:52;;;;;;;19.80;12.70;;;6.20;99.90;;;;;;5073386;28;20289;-75
2023/03/03 12:36:55;;;;;;;19.60;12.88;;;6.20;99.90;;;;;;5073521;28;20354;-77
2023/03/03 12:39:38;;;;;;;22.67;14.02;;;6.30;99.90;;;;;;5072684;28;20230;-74
2023/03/03 12:42:15;;;;;;;21.15;13.90;;;6.30;99.90;;;;;;5073242;28;20369;-77
2023/03/03 12:44:47;;;;;;;18.50;12.32;;;6.30;99.90;;;;;;5072845;28;20235;-78
2023/03/03 12:47:19;;;;;;;23.10;14.27;;;6.40;99.90;;;;;;5073362;28;20278;-74
2023/03/03 12:50:00;;;;;;;19.80;13.82;;;6.40;99.90;;;;;;5073527;28;20223;-74
2023/03/03 12:52:39;;;;;;;21.23;13.27;;;6.40;99.90;;;;;;5072801;28;20681;-77
2023/03/03 12:55:14;;;;;;;17.33;12.63;;;6.40;99.90;;;;;;5072584;28;20567;-77
2023/03/03 12:57:52;;;;;;;18.70;14.50;;;6.50;99.90;;;;;;5061826;28;20571;-74
2023/03/03 13:00:30;;;;;;;20.45;13.55;;;6.40;99.90;;;;;;5072791;28;20220;-74
2023/03/03 13:03:13;;;;;;;20.88;13.57;;;6.40;99.90;;;;;;5074308;28;20245;-77